sensor_id;sensor_type;location;lat;lon;timestamp;P1;durP1;ratioP1;P2;durP2;ratioP2
73585;SDS011;61865;50.232;18.614;2022-12-08T00:02:14;23.20;;;12.48;;
73585;SDS011;61865;50.232;18.614;2022-12-08T00:04:36;23.90;;;13.70;;
73585;SDS011;61865;50.232;18.614;2022-12-08T00:07:19;20.58;;;10.95;;
73585;SDS011;61865;50.232;18.614;2022-12-08T00:09:58;19.48;;;12.52;;
73585;SDS011;61865;50.232;18.614;2022-12-08T00:12:20;23.27;;;12.10;;
73585;SDS011;61865;50.232;18.614;2022-12-08T00:14:44;21.40;;;12.55;;
73585;SDS011;61865;50.232;18.614;2022-12-08T00:17:09;19.73;;;11.30;;
73585;SDS011;61865;50.232;18.614;2022-12-08T00:19:32;22.35;;;12.40;;
73585;SDS011;61865;50.232;18.614;2022-12-08T00:21:54;22.92;;;12.43;;
73585;SDS011;61865;50.232;18.614;2022-12-08T00:24:18;20.02;;;12.70;;
73585;SDS011;61865;50.232;18.614;2022-12-08T00:26:41;24.50;;;12.40;;
73585;SDS011;61865;50.232;18.614;2022-12-08T00:29:03;19.20;;;11.60;;
73585;SDS011;61865;50.232;18.614;2022-12-08T00:31:25;19.85;;;12.52;;
73585;SDS011;61865;50.232;18.614;2022-12-08T00:33:49;24.00;;;12.48;;
73585;SDS011;61865;50.232;18.614;2022-12-08T00:36:12;23.20;;;11.40;;
73585;SDS011;61865;50.232;18.614;2022-12-08T00:38:35;21.73;;;11.90;;
73585;SDS011;61865;50.232;18.614;2022-12-08T00:40:59;17.52;;;10.77;;
73585;SDS011;61865;50.232;18.614;2022-12-08T00:43:21;19.98;;;10.98;;
73585;SDS011;61865;50.232;18.614;2022-12-08T00:45:43;18.52;;;10.82;;
73585;SDS011;61865;50.232;18.614;2022-12-08T00:48:05;18.73;;;12.50;;
73585;SDS011;61865;50.232;18.614;2022-12-08T00:50:27;18.67;;;11.77;;
73585;SDS011;61865;50.232;18.614;2022-12-08T00:52:49;22.35;;;12.25;;
73585;SDS011;61865;50.232;18.614;2022-12-08T00:55:13;19.45;;;12.20;;
73585;SDS011;61865;50.232;18.614;2022-12-08T00:57:37;21.77;;;12.77;;
73585;SDS011;61865;50.232;18.614;2022-12-08T00:59:59;24.67;;;14.50;;
73585;SDS011;61865;50.232;18.614;2022-12-08T01:02:21;27.08;;;13.40;;
73585;SDS011;61865;50.232;18.614;2022-12-08T01:04:43;19.40;;;11.18;;
73585;SDS011;61865;50.232;18.614;2022-12-08T01:07:05;22.05;;;11.93;;
73585;SDS011;61865;50.232;18.614;2022-12-08T01:09:27;22.48;;;12.45;;
73585;SDS011;61865;50.232;18.614;2022-12-08T01:11:48;24.40;;;13.52;;
73585;SDS011;61865;50.232;18.614;2022-12-08T01:14:12;18.27;;;11.68;;
73585;SDS011;61865;50.232;18.614;2022-12-08T01:16:34;20.95;;;11.70;;
73585;SDS011;61865;50.232;18.614;2022-12-08T01:18:57;18.50;;;11.45;;
73585;SDS011;61865;50.232;18.614;2022-12-08T01:21:20;18.13;;;11.35;;
73585;SDS011;61865;50.232;18.614;2022-12-08T01:23:42;19.80;;;12.00;;
73585;SDS011;61865;50.232;18.614;2022-12-08T01:26:04;20.35;;;11.27;;
73585;SDS011;61865;50.232;18.614;2022-12-08T01:28:28;18.15;;;11.00;;
73585;SDS011;61865;50.232;18.614;2022-12-08T01:30:52;19.95;;;10.38;;
73585;SDS011;61865;50.232;18.614;2022-12-08T01:33:14;20.77;;;11.77;;
73585;SDS011;61865;50.232;18.614;2022-12-08T01:35:36;23.25;;;12.05;;
73585;SDS011;61865;50.232;18.614;2022-12-08T01:37:59;18.70;;;11.00;;
73585;SDS011;61865;50.232;18.614;2022-12-08T01:40:21;17.08;;;11.15;;
73585;SDS011;61865;50.232;18.614;2022-12-08T01:42:43;19.63;;;11.75;;
73585;SDS011;61865;50.232;18.614;2022-12-08T01:45:05;18.42;;;11.27;;
73585;SDS011;61865;50.232;18.614;2022-12-08T01:47:36;17.52;;;10.88;;
73585;SDS011;61865;50.232;18.614;2022-12-08T01:50:01;25.10;;;12.30;;
73585;SDS011;61865;50.232;18.614;2022-12-08T01:52:27;20.80;;;11.30;;
73585;SDS011;61865;50.232;18.614;2022-12-08T01:54:55;19.98;;;12.23;;
73585;SDS011;61865;50.232;18.614;2022-12-08T01:57:21;17.33;;;11.32;;
73585;SDS011;61865;50.232;18.614;2022-12-08T01:59:48;19.48;;;11.27;;
73585;SDS011;61865;50.232;18.614;2022-12-08T02:02:15;16.55;;;10.95;;
73585;SDS011;61865;50.232;18.614;2022-12-08T02:04:38;17.30;;;10.43;;
73585;SDS011;61865;50.232;18.614;2022-12-08T02:07:00;17.02;;;10.63;;
73585;SDS011;61865;50.232;18.614;2022-12-08T02:09:23;16.42;;;10.85;;
73585;SDS011;61865;50.232;18.614;2022-12-08T02:11:45;17.10;;;10.70;;
73585;SDS011;61865;50.232;18.614;2022-12-08T02:14:07;15.30;;;10.25;;
73585;SDS011;61865;50.232;18.614;2022-12-08T02:16:34;20.90;;;9.88;;
73585;SDS011;61865;50.232;18.614;2022-12-08T02:19:14;16.10;;;10.48;;
73585;SDS011;61865;50.232;18.614;2022-12-08T02:22:03;15.23;;;9.35;;
73585;SDS011;61865;50.232;18.614;2022-12-08T02:24:33;17.92;;;10.18;;
73585;SDS011;61865;50.232;18.614;2022-12-08T02:27:16;14.10;;;9.45;;
73585;SDS011;61865;50.232;18.614;2022-12-08T02:30:02;13.55;;;9.05;;
73585;SDS011;61865;50.232;18.614;2022-12-08T02:32:40;14.70;;;8.93;;
73585;SDS011;61865;50.232;18.614;2022-12-08T02:35:24;15.55;;;9.65;;
73585;SDS011;61865;50.232;18.614;2022-12-08T02:37:53;14.35;;;9.38;;
73585;SDS011;61865;50.232;18.614;2022-12-08T02:40:20;15.90;;;9.93;;
73585;SDS011;61865;50.232;18.614;2022-12-08T02:42:46;16.80;;;8.93;;
73585;SDS011;61865;50.232;18.614;2022-12-08T02:45:15;12.48;;;9.10;;
73585;SDS011;61865;50.232;18.614;2022-12-08T02:47:42;14.82;;;8.57;;
73585;SDS011;61865;50.232;18.614;2022-12-08T02:50:06;13.40;;;8.90;;
73585;SDS011;61865;50.232;18.614;2022-12-08T02:52:40;15.50;;;9.00;;
73585;SDS011;61865;50.232;18.614;2022-12-08T02:55:04;14.45;;;9.82;;
73585;SDS011;61865;50.232;18.614;2022-12-08T02:57:30;15.52;;;9.18;;
73585;SDS011;61865;50.232;18.614;2022-12-08T03:00:06;16.20;;;10.07;;
73585;SDS011;61865;50.232;18.614;2022-12-08T03:02:34;16.23;;;9.27;;
73585;SDS011;61865;50.232;18.614;2022-12-08T03:05:09;14.20;;;8.85;;
73585;SDS011;61865;50.232;18.614;2022-12-08T03:07:44;12.65;;;8.65;;
73585;SDS011;61865;50.232;18.614;2022-12-08T03:10:15;13.98;;;9.20;;
73585;SDS011;61865;50.232;18.614;2022-12-08T03:12:46;16.30;;;10.07;;
73585;SDS011;61865;50.232;18.614;2022-12-08T03:15:10;16.83;;;9.98;;
73585;SDS011;61865;50.232;18.614;2022-12-08T03:17:35;17.63;;;9.55;;
73585;SDS011;61865;50.232;18.614;2022-12-08T03:20:02;14.40;;;9.70;;
73585;SDS011;61865;50.232;18.614;2022-12-08T03:22:29;17.25;;;9.48;;
73585;SDS011;61865;50.232;18.614;2022-12-08T03:24:53;13.07;;;9.10;;
73585;SDS011;61865;50.232;18.614;2022-12-08T03:27:17;15.10;;;9.63;;
73585;SDS011;61865;50.232;18.614;2022-12-08T03:29:41;16.27;;;10.10;;
73585;SDS011;61865;50.232;18.614;2022-12-08T03:32:06;14.70;;;9.68;;
73585;SDS011;61865;50.232;18.614;2022-12-08T03:34:30;16.02;;;10.32;;
73585;SDS011;61865;50.232;18.614;2022-12-08T03:36:53;14.90;;;10.65;;
73585;SDS011;61865;50.232;18.614;2022-12-08T03:39:15;14.93;;;10.07;;
73585;SDS011;61865;50.232;18.614;2022-12-08T03:41:38;14.80;;;10.00;;
73585;SDS011;61865;50.232;18.614;2022-12-08T03:44:00;15.45;;;10.07;;
73585;SDS011;61865;50.232;18.614;2022-12-08T03:46:23;15.80;;;10.65;;
73585;SDS011;61865;50.232;18.614;2022-12-08T03:48:47;17.23;;;10.43;;
73585;SDS011;61865;50.232;18.614;2022-12-08T03:51:09;17.50;;;11.00;;
73585;SDS011;61865;50.232;18.614;2022-12-08T03:53:31;15.45;;;9.02;;
73585;SDS011;61865;50.232;18.614;2022-12-08T03:55:53;15.80;;;11.05;;
73585;SDS011;61865;50.232;18.614;2022-12-08T03:58:17;16.58;;;10.52;;
73585;SDS011;61865;50.232;18.614;2022-12-08T04:00:39;15.95;;;9.95;;
73585;SDS011;61865;50.232;18.614;2022-12-08T04:03:01;17.25;;;10.23;;
73585;SDS011;61865;50.232;18.614;2022-12-08T04:05:25;15.20;;;9.65;;
73585;SDS011;61865;50.232;18.614;2022-12-08T04:07:47;16.77;;;10.80;;
73585;SDS011;61865;50.232;18.614;2022-12-08T04:10:09;17.23;;;10.32;;
73585;SDS011;61865;50.232;18.614;2022-12-08T04:12:31;17.30;;;11.13;;
73585;SDS011;61865;50.232;18.614;2022-12-08T04:14:54;16.70;;;10.27;;
73585;SDS011;61865;50.232;18.614;2022-12-08T04:17:16;14.88;;;10.88;;
73585;SDS011;61865;50.232;18.614;2022-12-08T04:19:38;14.90;;;10.10;;
73585;SDS011;61865;50.232;18.614;2022-12-08T04:22:00;18.85;;;11.02;;
73585;SDS011;61865;50.232;18.614;2022-12-08T04:24:22;20.20;;;11.70;;
73585;SDS011;61865;50.232;18.614;2022-12-08T04:26:44;21.08;;;11.77;;
73585;SDS011;61865;50.232;18.614;2022-12-08T04:29:08;20.30;;;11.05;;
73585;SDS011;61865;50.232;18.614;2022-12-08T04:31:32;14.82;;;10.40;;
73585;SDS011;61865;50.232;18.614;2022-12-08T04:33:53;13.98;;;10.15;;
73585;SDS011;61865;50.232;18.614;2022-12-08T04:36:15;17.45;;;10.95;;
73585;SDS011;61865;50.232;18.614;2022-12-08T04:38:37;19.73;;;11.73;;
73585;SDS011;61865;50.232;18.614;2022-12-08T04:40:59;20.00;;;11.63;;
73585;SDS011;61865;50.232;18.614;2022-12-08T04:43:22;16.05;;;10.70;;
73585;SDS011;61865;50.232;18.614;2022-12-08T04:45:44;18.33;;;10.90;;
73585;SDS011;61865;50.232;18.614;2022-12-08T04:48:07;18.17;;;10.63;;
73585;SDS011;61865;50.232;18.614;2022-12-08T04:50:31;17.67;;;11.95;;
73585;SDS011;61865;50.232;18.614;2022-12-08T04:52:53;18.45;;;11.43;;
73585;SDS011;61865;50.232;18.614;2022-12-08T04:55:15;15.30;;;10.88;;
73585;SDS011;61865;50.232;18.614;2022-12-08T04:57:37;17.27;;;10.65;;
73585;SDS011;61865;50.232;18.614;2022-12-08T04:59:59;18.55;;;10.82;;
73585;SDS011;61865;50.232;18.614;2022-12-08T05:02:21;18.80;;;11.00;;
73585;SDS011;61865;50.232;18.614;2022-12-08T05:04:44;18.60;;;12.20;;
73585;SDS011;61865;50.232;18.614;2022-12-08T05:07:06;23.27;;;14.20;;
73585;SDS011;61865;50.232;18.614;2022-12-08T05:09:28;25.30;;;15.18;;
73585;SDS011;61865;50.232;18.614;2022-12-08T05:11:50;23.65;;;15.07;;
73585;SDS011;61865;50.232;18.614;2022-12-08T05:14:13;24.40;;;15.13;;
73585;SDS011;61865;50.232;18.614;2022-12-08T05:16:36;21.75;;;14.07;;
73585;SDS011;61865;50.232;18.614;2022-12-08T05:18:58;26.38;;;14.48;;
73585;SDS011;61865;50.232;18.614;2022-12-08T05:21:22;23.55;;;14.55;;
73585;SDS011;61865;50.232;18.614;2022-12-08T05:23:44;22.58;;;13.40;;
73585;SDS011;61865;50.232;18.614;2022-12-08T05:26:06;22.45;;;13.10;;
73585;SDS011;61865;50.232;18.614;2022-12-08T05:28:28;23.35;;;12.88;;
73585;SDS011;61865;50.232;18.614;2022-12-08T05:30:49;21.80;;;12.63;;
73585;SDS011;61865;50.232;18.614;2022-12-08T05:33:11;19.70;;;12.48;;
73585;SDS011;61865;50.232;18.614;2022-12-08T05:35:33;19.58;;;11.98;;
73585;SDS011;61865;50.232;18.614;2022-12-08T05:37:57;22.65;;;13.18;;
73585;SDS011;61865;50.232;18.614;2022-12-08T05:40:18;20.83;;;12.07;;
73585;SDS011;61865;50.232;18.614;2022-12-08T05:42:40;22.95;;;12.95;;
73585;SDS011;61865;50.232;18.614;2022-12-08T05:45:02;21.98;;;12.23;;
73585;SDS011;61865;50.232;18.614;2022-12-08T05:47:25;18.90;;;10.77;;
73585;SDS011;61865;50.232;18.614;2022-12-08T05:49:47;20.75;;;12.13;;
73585;SDS011;61865;50.232;18.614;2022-12-08T05:52:09;17.73;;;9.73;;
73585;SDS011;61865;50.232;18.614;2022-12-08T05:54:32;18.83;;;11.10;;
73585;SDS011;61865;50.232;18.614;2022-12-08T05:56:54;17.52;;;10.88;;
73585;SDS011;61865;50.232;18.614;2022-12-08T05:59:16;16.02;;;11.57;;
73585;SDS011;61865;50.232;18.614;2022-12-08T06:01:38;17.77;;;11.20;;
73585;SDS011;61865;50.232;18.614;2022-12-08T06:04:02;18.80;;;10.40;;
73585;SDS011;61865;50.232;18.614;2022-12-08T06:06:24;16.95;;;10.57;;
73585;SDS011;61865;50.232;18.614;2022-12-08T06:08:46;18.23;;;11.15;;
73585;SDS011;61865;50.232;18.614;2022-12-08T06:11:15;16.58;;;10.80;;
73585;SDS011;61865;50.232;18.614;2022-12-08T06:13:38;15.20;;;9.57;;
73585;SDS011;61865;50.232;18.614;2022-12-08T06:16:02;19.02;;;11.35;;
73585;SDS011;61865;50.232;18.614;2022-12-08T06:18:25;16.05;;;10.90;;
73585;SDS011;61865;50.232;18.614;2022-12-08T06:20:47;16.00;;;10.70;;
73585;SDS011;61865;50.232;18.614;2022-12-08T06:23:09;16.92;;;10.25;;
73585;SDS011;61865;50.232;18.614;2022-12-08T06:25:31;20.77;;;10.38;;
73585;SDS011;61865;50.232;18.614;2022-12-08T06:27:54;17.92;;;11.10;;
73585;SDS011;61865;50.232;18.614;2022-12-08T06:30:16;17.00;;;10.98;;
73585;SDS011;61865;50.232;18.614;2022-12-08T06:32:38;14.43;;;9.88;;
73585;SDS011;61865;50.232;18.614;2022-12-08T06:35:00;18.33;;;10.90;;
73585;SDS011;61865;50.232;18.614;2022-12-08T06:37:22;20.20;;;11.30;;
73585;SDS011;61865;50.232;18.614;2022-12-08T06:39:44;18.98;;;11.73;;
73585;SDS011;61865;50.232;18.614;2022-12-08T06:42:06;24.33;;;12.45;;
73585;SDS011;61865;50.232;18.614;2022-12-08T06:44:52;18.67;;;11.40;;
73585;SDS011;61865;50.232;18.614;2022-12-08T06:47:14;22.48;;;12.20;;
73585;SDS011;61865;50.232;18.614;2022-12-08T06:49:36;17.88;;;11.52;;
73585;SDS011;61865;50.232;18.614;2022-12-08T06:51:58;18.95;;;12.35;;
73585;SDS011;61865;50.232;18.614;2022-12-08T06:54:20;20.75;;;12.70;;
73585;SDS011;61865;50.232;18.614;2022-12-08T06:56:45;22.42;;;12.27;;
73585;SDS011;61865;50.232;18.614;2022-12-08T06:59:07;19.70;;;12.13;;
73585;SDS011;61865;50.232;18.614;2022-12-08T07:01:33;22.33;;;12.32;;
73585;SDS011;61865;50.232;18.614;2022-12-08T07:03:55;27.83;;;13.75;;
73585;SDS011;61865;50.232;18.614;2022-12-08T07:06:19;21.73;;;12.73;;
73585;SDS011;61865;50.232;18.614;2022-12-08T07:08:42;23.45;;;13.18;;
73585;SDS011;61865;50.232;18.614;2022-12-08T07:11:07;20.95;;;12.20;;
73585;SDS011;61865;50.232;18.614;2022-12-08T07:13:30;21.73;;;12.25;;
73585;SDS011;61865;50.232;18.614;2022-12-08T07:15:52;21.48;;;12.65;;
73585;SDS011;61865;50.232;18.614;2022-12-08T07:18:15;22.58;;;11.90;;
73585;SDS011;61865;50.232;18.614;2022-12-08T07:20:38;25.40;;;14.25;;
73585;SDS011;61865;50.232;18.614;2022-12-08T07:23:03;24.25;;;15.93;;
73585;SDS011;61865;50.232;18.614;2022-12-08T07:25:24;32.70;;;16.70;;
73585;SDS011;61865;50.232;18.614;2022-12-08T07:27:47;24.73;;;15.30;;
73585;SDS011;61865;50.232;18.614;2022-12-08T07:30:10;25.63;;;14.93;;
73585;SDS011;61865;50.232;18.614;2022-12-08T07:32:33;22.65;;;14.63;;
73585;SDS011;61865;50.232;18.614;2022-12-08T07:34:58;25.77;;;14.45;;
73585;SDS011;61865;50.232;18.614;2022-12-08T07:37:20;26.20;;;15.05;;
73585;SDS011;61865;50.232;18.614;2022-12-08T07:39:41;30.80;;;17.65;;
73585;SDS011;61865;50.232;18.614;2022-12-08T07:42:03;30.17;;;16.75;;
73585;SDS011;61865;50.232;18.614;2022-12-08T07:44:25;26.20;;;15.88;;
73585;SDS011;61865;50.232;18.614;2022-12-08T07:46:47;27.23;;;14.80;;
73585;SDS011;61865;50.232;18.614;2022-12-08T07:49:09;26.70;;;15.70;;
73585;SDS011;61865;50.232;18.614;2022-12-08T07:51:34;25.13;;;14.73;;
73585;SDS011;61865;50.232;18.614;2022-12-08T07:53:55;25.33;;;14.27;;
73585;SDS011;61865;50.232;18.614;2022-12-08T07:56:17;24.40;;;15.80;;
73585;SDS011;61865;50.232;18.614;2022-12-08T07:58:40;27.65;;;14.90;;
73585;SDS011;61865;50.232;18.614;2022-12-08T08:01:04;24.30;;;15.00;;
73585;SDS011;61865;50.232;18.614;2022-12-08T08:03:27;31.60;;;15.27;;
73585;SDS011;61865;50.232;18.614;2022-12-08T08:05:49;27.02;;;15.40;;
73585;SDS011;61865;50.232;18.614;2022-12-08T08:08:12;26.83;;;15.45;;
73585;SDS011;61865;50.232;18.614;2022-12-08T08:10:34;27.50;;;15.48;;
73585;SDS011;61865;50.232;18.614;2022-12-08T08:12:57;27.80;;;13.88;;
73585;SDS011;61865;50.232;18.614;2022-12-08T08:15:19;25.63;;;13.73;;
73585;SDS011;61865;50.232;18.614;2022-12-08T08:17:41;26.60;;;13.13;;
73585;SDS011;61865;50.232;18.614;2022-12-08T08:20:03;21.45;;;12.13;;
73585;SDS011;61865;50.232;18.614;2022-12-08T08:22:26;24.30;;;13.10;;
73585;SDS011;61865;50.232;18.614;2022-12-08T08:24:50;20.77;;;13.10;;
73585;SDS011;61865;50.232;18.614;2022-12-08T08:27:12;26.30;;;14.98;;
73585;SDS011;61865;50.232;18.614;2022-12-08T08:29:34;22.60;;;14.18;;
73585;SDS011;61865;50.232;18.614;2022-12-08T08:31:56;28.48;;;15.52;;
73585;SDS011;61865;50.232;18.614;2022-12-08T08:34:18;27.42;;;15.27;;
73585;SDS011;61865;50.232;18.614;2022-12-08T08:36:40;28.10;;;14.45;;
73585;SDS011;61865;50.232;18.614;2022-12-08T08:39:02;28.30;;;16.20;;
73585;SDS011;61865;50.232;18.614;2022-12-08T08:41:25;26.50;;;15.23;;
73585;SDS011;61865;50.232;18.614;2022-12-08T08:43:47;23.08;;;14.00;;
73585;SDS011;61865;50.232;18.614;2022-12-08T08:46:10;22.58;;;13.40;;
73585;SDS011;61865;50.232;18.614;2022-12-08T08:48:32;23.95;;;12.55;;
73585;SDS011;61865;50.232;18.614;2022-12-08T08:50:54;21.23;;;13.32;;
73585;SDS011;61865;50.232;18.614;2022-12-08T08:53:17;25.30;;;12.98;;
73585;SDS011;61865;50.232;18.614;2022-12-08T08:55:39;22.25;;;12.48;;
73585;SDS011;61865;50.232;18.614;2022-12-08T08:58:02;22.35;;;11.63;;
73585;SDS011;61865;50.232;18.614;2022-12-08T09:00:24;18.45;;;10.80;;
73585;SDS011;61865;50.232;18.614;2022-12-08T09:02:46;15.45;;;9.88;;
73585;SDS011;61865;50.232;18.614;2022-12-08T09:05:08;16.17;;;10.15;;
73585;SDS011;61865;50.232;18.614;2022-12-08T09:07:30;20.02;;;11.07;;
73585;SDS011;61865;50.232;18.614;2022-12-08T09:09:52;23.13;;;13.27;;
73585;SDS011;61865;50.232;18.614;2022-12-08T09:12:15;22.85;;;12.63;;
73585;SDS011;61865;50.232;18.614;2022-12-08T09:14:38;18.80;;;11.15;;
73585;SDS011;61865;50.232;18.614;2022-12-08T09:17:00;18.40;;;10.63;;
73585;SDS011;61865;50.232;18.614;2022-12-08T09:19:22;21.23;;;11.70;;
73585;SDS011;61865;50.232;18.614;2022-12-08T09:21:44;18.85;;;10.50;;
73585;SDS011;61865;50.232;18.614;2022-12-08T09:24:06;19.20;;;10.98;;
73585;SDS011;61865;50.232;18.614;2022-12-08T09:26:34;19.60;;;11.20;;
73585;SDS011;61865;50.232;18.614;2022-12-08T09:28:56;16.02;;;9.60;;
73585;SDS011;61865;50.232;18.614;2022-12-08T09:31:21;18.60;;;11.07;;
73585;SDS011;61865;50.232;18.614;2022-12-08T09:33:44;20.13;;;11.52;;
73585;SDS011;61865;50.232;18.614;2022-12-08T09:36:06;18.98;;;10.75;;
73585;SDS011;61865;50.232;18.614;2022-12-08T09:38:30;19.60;;;11.48;;
73585;SDS011;61865;50.232;18.614;2022-12-08T09:40:52;17.15;;;10.57;;
73585;SDS011;61865;50.232;18.614;2022-12-08T09:43:18;25.05;;;12.90;;
73585;SDS011;61865;50.232;18.614;2022-12-08T09:45:53;20.95;;;11.75;;
73585;SDS011;61865;50.232;18.614;2022-12-08T09:48:17;20.30;;;11.25;;
73585;SDS011;61865;50.232;18.614;2022-12-08T09:50:44;15.55;;;10.05;;
73585;SDS011;61865;50.232;18.614;2022-12-08T09:53:13;17.17;;;10.48;;
73585;SDS011;61865;50.232;18.614;2022-12-08T09:55:40;22.30;;;9.43;;
73585;SDS011;61865;50.232;18.614;2022-12-08T09:58:05;17.45;;;8.95;;
73585;SDS011;61865;50.232;18.614;2022-12-08T10:00:38;18.02;;;9.63;;
73585;SDS011;61865;50.232;18.614;2022-12-08T10:03:00;18.73;;;11.60;;
73585;SDS011;61865;50.232;18.614;2022-12-08T10:05:26;21.05;;;10.70;;
73585;SDS011;61865;50.232;18.614;2022-12-08T10:07:58;20.75;;;10.23;;
73585;SDS011;61865;50.232;18.614;2022-12-08T10:10:31;17.27;;;9.68;;
73585;SDS011;61865;50.232;18.614;2022-12-08T10:13:00;19.67;;;9.93;;
73585;SDS011;61865;50.232;18.614;2022-12-08T10:18:14;19.50;;;10.25;;
73585;SDS011;61865;50.232;18.614;2022-12-08T10:20:40;14.82;;;9.43;;
73585;SDS011;61865;50.232;18.614;2022-12-08T10:23:06;16.25;;;9.73;;
73585;SDS011;61865;50.232;18.614;2022-12-08T10:25:37;16.92;;;9.18;;
73585;SDS011;61865;50.232;18.614;2022-12-08T10:28:03;19.67;;;11.45;;
73585;SDS011;61865;50.232;18.614;2022-12-08T10:30:25;16.58;;;10.43;;
73585;SDS011;61865;50.232;18.614;2022-12-08T10:32:48;24.48;;;11.25;;
73585;SDS011;61865;50.232;18.614;2022-12-08T10:35:12;23.70;;;10.32;;
73585;SDS011;61865;50.232;18.614;2022-12-08T10:37:37;17.38;;;8.65;;
73585;SDS011;61865;50.232;18.614;2022-12-08T10:39:59;16.48;;;9.35;;
73585;SDS011;61865;50.232;18.614;2022-12-08T10:42:23;17.63;;;9.70;;
73585;SDS011;61865;50.232;18.614;2022-12-08T10:44:51;18.08;;;10.25;;
73585;SDS011;61865;50.232;18.614;2022-12-08T10:47:19;15.48;;;9.60;;
73585;SDS011;61865;50.232;18.614;2022-12-08T10:49:42;17.65;;;10.00;;
73585;SDS011;61865;50.232;18.614;2022-12-08T10:52:06;17.65;;;9.68;;
73585;SDS011;61865;50.232;18.614;2022-12-08T10:54:33;17.83;;;10.75;;
73585;SDS011;61865;50.232;18.614;2022-12-08T10:56:56;14.88;;;9.50;;
73585;SDS011;61865;50.232;18.614;2022-12-08T10:59:18;16.33;;;9.75;;
73585;SDS011;61865;50.232;18.614;2022-12-08T11:01:40;23.40;;;10.05;;
73585;SDS011;61865;50.232;18.614;2022-12-08T11:04:09;16.80;;;11.00;;
73585;SDS011;61865;50.232;18.614;2022-12-08T11:06:36;17.70;;;10.43;;
73585;SDS011;61865;50.232;18.614;2022-12-08T11:09:00;18.25;;;10.60;;
73585;SDS011;61865;50.232;18.614;2022-12-08T11:11:37;18.75;;;10.77;;
73585;SDS011;61865;50.232;18.614;2022-12-08T11:14:05;24.33;;;11.52;;
73585;SDS011;61865;50.232;18.614;2022-12-08T11:16:27;16.30;;;10.13;;
73585;SDS011;61865;50.232;18.614;2022-12-08T11:18:54;16.10;;;10.40;;
73585;SDS011;61865;50.232;18.614;2022-12-08T11:21:17;19.02;;;9.30;;
73585;SDS011;61865;50.232;18.614;2022-12-08T11:23:40;15.90;;;9.48;;
73585;SDS011;61865;50.232;18.614;2022-12-08T11:26:08;21.80;;;10.20;;
73585;SDS011;61865;50.232;18.614;2022-12-08T11:28:40;16.63;;;9.52;;
73585;SDS011;61865;50.232;18.614;2022-12-08T11:31:03;19.70;;;10.32;;
73585;SDS011;61865;50.232;18.614;2022-12-08T11:33:32;22.60;;;9.40;;
73585;SDS011;61865;50.232;18.614;2022-12-08T11:35:57;15.77;;;9.27;;
73585;SDS011;61865;50.232;18.614;2022-12-08T11:38:23;17.17;;;9.57;;
73585;SDS011;61865;50.232;18.614;2022-12-08T11:40:47;21.13;;;12.38;;
73585;SDS011;61865;50.232;18.614;2022-12-08T11:43:14;23.58;;;9.98;;
73585;SDS011;61865;50.232;18.614;2022-12-08T11:45:40;15.15;;;9.20;;
73585;SDS011;61865;50.232;18.614;2022-12-08T11:48:05;16.30;;;10.93;;
73585;SDS011;61865;50.232;18.614;2022-12-08T11:50:36;16.58;;;9.50;;
73585;SDS011;61865;50.232;18.614;2022-12-08T11:53:02;20.00;;;11.63;;
73585;SDS011;61865;50.232;18.614;2022-12-08T11:55:30;16.05;;;9.82;;
73585;SDS011;61865;50.232;18.614;2022-12-08T11:57:57;20.27;;;10.68;;
73585;SDS011;61865;50.232;18.614;2022-12-08T12:00:29;16.70;;;10.13;;
73585;SDS011;61865;50.232;18.614;2022-12-08T12:02:58;15.38;;;9.13;;
73585;SDS011;61865;50.232;18.614;2022-12-08T12:05:28;18.70;;;9.90;;
73585;SDS011;61865;50.232;18.614;2022-12-08T12:08:00;23.15;;;9.95;;
73585;SDS011;61865;50.232;18.614;2022-12-08T12:10:36;16.20;;;9.73;;
73585;SDS011;61865;50.232;18.614;2022-12-08T12:13:21;18.25;;;10.80;;
73585;SDS011;61865;50.232;18.614;2022-12-08T12:16:09;19.00;;;10.80;;
73585;SDS011;61865;50.232;18.614;2022-12-08T12:18:48;22.17;;;9.23;;
73585;SDS011;61865;50.232;18.614;2022-12-08T12:21:12;17.67;;;9.77;;
73585;SDS011;61865;50.232;18.614;2022-12-08T12:23:39;15.23;;;8.13;;
73585;SDS011;61865;50.232;18.614;2022-12-08T12:26:05;15.45;;;8.05;;
73585;SDS011;61865;50.232;18.614;2022-12-08T12:28:29;13.98;;;7.10;;
73585;SDS011;61865;50.232;18.614;2022-12-08T12:33:23;8.95;;;5.65;;
73585;SDS011;61865;50.232;18.614;2022-12-08T12:35:47;9.65;;;6.60;;
73585;SDS011;61865;50.232;18.614;2022-12-08T12:38:15;10.68;;;6.03;;
73585;SDS011;61865;50.232;18.614;2022-12-08T12:40:59;9.98;;;5.45;;
73585;SDS011;61865;50.232;18.614;2022-12-08T12:43:27;10.65;;;5.63;;
73585;SDS011;61865;50.232;18.614;2022-12-08T12:45:51;11.57;;;6.35;;
73585;SDS011;61865;50.232;18.614;2022-12-08T12:48:51;13.65;;;6.50;;
73585;SDS011;61865;50.232;18.614;2022-12-08T12:51:41;14.63;;;7.78;;
73585;SDS011;61865;50.232;18.614;2022-12-08T12:56:47;15.25;;;7.53;;
73585;SDS011;61865;50.232;18.614;2022-12-08T12:59:20;11.23;;;7.13;;
73585;SDS011;61865;50.232;18.614;2022-12-08T13:01:52;14.57;;;7.97;;
73585;SDS011;61865;50.232;18.614;2022-12-08T13:04:15;15.40;;;8.85;;
73585;SDS011;61865;50.232;18.614;2022-12-08T13:06:40;15.57;;;8.23;;
73585;SDS011;61865;50.232;18.614;2022-12-08T13:09:04;14.68;;;7.80;;
73585;SDS011;61865;50.232;18.614;2022-12-08T13:11:27;14.15;;;7.70;;
73585;SDS011;61865;50.232;18.614;2022-12-08T13:13:54;12.77;;;7.88;;
73585;SDS011;61865;50.232;18.614;2022-12-08T13:16:17;15.20;;;7.78;;
73585;SDS011;61865;50.232;18.614;2022-12-08T13:18:45;11.93;;;7.47;;
73585;SDS011;61865;50.232;18.614;2022-12-08T13:21:10;12.68;;;7.07;;
73585;SDS011;61865;50.232;18.614;2022-12-08T13:23:42;12.30;;;7.88;;
73585;SDS011;61865;50.232;18.614;2022-12-08T13:26:11;13.10;;;8.63;;
73585;SDS011;61865;50.232;18.614;2022-12-08T13:34:11;15.50;;;8.05;;
73585;SDS011;61865;50.232;18.614;2022-12-08T13:36:37;12.38;;;7.57;;
73585;SDS011;61865;50.232;18.614;2022-12-08T13:39:04;12.07;;;7.70;;
73585;SDS011;61865;50.232;18.614;2022-12-08T13:41:28;12.00;;;8.38;;
73585;SDS011;61865;50.232;18.614;2022-12-08T13:43:57;15.25;;;8.05;;
73585;SDS011;61865;50.232;18.614;2022-12-08T13:46:28;13.23;;;8.13;;
73585;SDS011;61865;50.232;18.614;2022-12-08T13:48:55;16.60;;;8.80;;
73585;SDS011;61865;50.232;18.614;2022-12-08T13:51:20;13.25;;;8.15;;
73585;SDS011;61865;50.232;18.614;2022-12-08T13:53:44;13.15;;;8.45;;
73585;SDS011;61865;50.232;18.614;2022-12-08T13:56:20;13.27;;;8.20;;
73585;SDS011;61865;50.232;18.614;2022-12-08T13:58:43;12.45;;;7.82;;
73585;SDS011;61865;50.232;18.614;2022-12-08T14:01:06;12.15;;;8.57;;
73585;SDS011;61865;50.232;18.614;2022-12-08T14:03:33;14.30;;;8.68;;
73585;SDS011;61865;50.232;18.614;2022-12-08T14:06:11;13.70;;;8.93;;
73585;SDS011;61865;50.232;18.614;2022-12-08T14:08:34;15.45;;;9.60;;
73585;SDS011;61865;50.232;18.614;2022-12-08T14:10:57;17.73;;;9.73;;
73585;SDS011;61865;50.232;18.614;2022-12-08T14:13:23;16.05;;;10.27;;
73585;SDS011;61865;50.232;18.614;2022-12-08T14:15:46;16.13;;;9.82;;